sensor_id;sensor_type;location;lat;lon;timestamp;P1;durP1;ratioP1;P2;durP2;ratioP2
44212;SDS011;29882;46.356;17.798;2022-12-08T00:01:24;34.90;;;30.83;;
44212;SDS011;29882;46.356;17.798;2022-12-08T00:03:53;40.20;;;33.38;;
44212;SDS011;29882;46.356;17.798;2022-12-08T00:09:24;38.13;;;32.15;;
44212;SDS011;29882;46.356;17.798;2022-12-08T00:12:04;32.67;;;29.17;;
44212;SDS011;29882;46.356;17.798;2022-12-08T00:14:38;33.67;;;30.08;;
44212;SDS011;29882;46.356;17.798;2022-12-08T00:17:10;34.03;;;30.45;;
44212;SDS011;29882;46.356;17.798;2022-12-08T00:19:39;33.15;;;29.63;;
44212;SDS011;29882;46.356;17.798;2022-12-08T00:22:07;32.35;;;28.85;;
44212;SDS011;29882;46.356;17.798;2022-12-08T00:24:37;34.15;;;29.23;;
44212;SDS011;29882;46.356;17.798;2022-12-08T00:27:06;30.20;;;26.88;;
44212;SDS011;29882;46.356;17.798;2022-12-08T00:29:35;29.80;;;26.70;;
44212;SDS011;29882;46.356;17.798;2022-12-08T00:32:02;31.42;;;28.23;;
44212;SDS011;29882;46.356;17.798;2022-12-08T00:34:30;35.92;;;28.15;;
44212;SDS011;29882;46.356;17.798;2022-12-08T00:36:58;34.15;;;29.10;;
44212;SDS011;29882;46.356;17.798;2022-12-08T00:39:25;32.95;;;29.35;;
44212;SDS011;29882;46.356;17.798;2022-12-08T00:41:53;33.22;;;29.63;;
44212;SDS011;29882;46.356;17.798;2022-12-08T00:44:41;30.73;;;27.35;;
44212;SDS011;29882;46.356;17.798;2022-12-08T00:47:09;28.90;;;25.98;;
44212;SDS011;29882;46.356;17.798;2022-12-08T00:49:37;28.08;;;25.17;;
44212;SDS011;29882;46.356;17.798;2022-12-08T00:52:04;29.17;;;26.15;;
44212;SDS011;29882;46.356;17.798;2022-12-08T00:54:31;27.45;;;24.73;;
44212;SDS011;29882;46.356;17.798;2022-12-08T00:56:59;27.48;;;24.75;;
44212;SDS011;29882;46.356;17.798;2022-12-08T00:59:26;27.60;;;24.85;;
44212;SDS011;29882;46.356;17.798;2022-12-08T01:01:53;29.13;;;26.13;;
44212;SDS011;29882;46.356;17.798;2022-12-08T01:04:20;31.33;;;28.02;;
44212;SDS011;29882;46.356;17.798;2022-12-08T01:06:47;28.95;;;25.95;;
44212;SDS011;29882;46.356;17.798;2022-12-08T01:09:15;28.38;;;25.38;;
44212;SDS011;29882;46.356;17.798;2022-12-08T01:11:43;26.65;;;24.05;;
44212;SDS011;29882;46.356;17.798;2022-12-08T01:14:11;28.60;;;25.60;;
44212;SDS011;29882;46.356;17.798;2022-12-08T01:16:39;27.17;;;24.55;;
44212;SDS011;29882;46.356;17.798;2022-12-08T01:19:13;29.85;;;26.83;;
44212;SDS011;29882;46.356;17.798;2022-12-08T01:21:41;30.25;;;27.05;;
44212;SDS011;29882;46.356;17.798;2022-12-08T01:24:10;30.38;;;27.17;;
44212;SDS011;29882;46.356;17.798;2022-12-08T01:26:38;28.88;;;25.98;;
44212;SDS011;29882;46.356;17.798;2022-12-08T01:29:05;27.27;;;24.45;;
44212;SDS011;29882;46.356;17.798;2022-12-08T01:31:33;28.95;;;25.88;;
44212;SDS011;29882;46.356;17.798;2022-12-08T01:34:00;30.08;;;26.88;;
44212;SDS011;29882;46.356;17.798;2022-12-08T01:36:28;29.90;;;26.77;;
44212;SDS011;29882;46.356;17.798;2022-12-08T01:38:57;29.42;;;26.42;;
44212;SDS011;29882;46.356;17.798;2022-12-08T01:41:28;28.13;;;25.13;;
44212;SDS011;29882;46.356;17.798;2022-12-08T01:44:00;33.72;;;30.25;;
44212;SDS011;29882;46.356;17.798;2022-12-08T01:46:30;33.40;;;29.90;;
44212;SDS011;29882;46.356;17.798;2022-12-08T01:49:03;35.17;;;31.45;;
44212;SDS011;29882;46.356;17.798;2022-12-08T01:51:36;34.53;;;30.83;;
44212;SDS011;29882;46.356;17.798;2022-12-08T01:54:08;36.30;;;32.53;;
44212;SDS011;29882;46.356;17.798;2022-12-08T01:56:45;36.58;;;32.67;;
44212;SDS011;29882;46.356;17.798;2022-12-08T01:59:26;35.28;;;31.67;;
44212;SDS011;29882;46.356;17.798;2022-12-08T02:01:56;35.85;;;32.15;;
44212;SDS011;29882;46.356;17.798;2022-12-08T02:04:23;37.30;;;33.25;;
44212;SDS011;29882;46.356;17.798;2022-12-08T02:06:50;35.78;;;32.10;;
44212;SDS011;29882;46.356;17.798;2022-12-08T02:09:19;36.53;;;32.83;;
44212;SDS011;29882;46.356;17.798;2022-12-08T02:11:47;37.63;;;33.63;;
44212;SDS011;29882;46.356;17.798;2022-12-08T02:14:15;38.95;;;34.83;;
44212;SDS011;29882;46.356;17.798;2022-12-08T02:28:01;41.00;;;36.50;;
44212;SDS011;29882;46.356;17.798;2022-12-08T02:37:17;37.15;;;33.35;;
44212;SDS011;29882;46.356;17.798;2022-12-08T02:42:51;35.72;;;32.03;;
44212;SDS011;29882;46.356;17.798;2022-12-08T02:45:30;36.80;;;32.85;;
44212;SDS011;29882;46.356;17.798;2022-12-08T02:48:04;37.78;;;33.78;;
44212;SDS011;29882;46.356;17.798;2022-12-08T02:50:34;36.67;;;32.78;;
44212;SDS011;29882;46.356;17.798;2022-12-08T02:53:01;37.42;;;33.40;;
44212;SDS011;29882;46.356;17.798;2022-12-08T02:55:45;37.08;;;33.20;;
44212;SDS011;29882;46.356;17.798;2022-12-08T03:12:08;36.45;;;32.75;;
44212;SDS011;29882;46.356;17.798;2022-12-08T03:14:47;35.70;;;32.13;;
44212;SDS011;29882;46.356;17.798;2022-12-08T03:19:47;38.88;;;34.67;;
44212;SDS011;29882;46.356;17.798;2022-12-08T03:22:16;38.05;;;34.10;;
44212;SDS011;29882;46.356;17.798;2022-12-08T03:24:47;37.95;;;34.05;;
44212;SDS011;29882;46.356;17.798;2022-12-08T03:27:17;35.80;;;32.20;;
44212;SDS011;29882;46.356;17.798;2022-12-08T03:29:47;35.97;;;32.05;;
44212;SDS011;29882;46.356;17.798;2022-12-08T03:32:21;36.17;;;32.50;;
44212;SDS011;29882;46.356;17.798;2022-12-08T03:34:55;36.20;;;32.53;;
44212;SDS011;29882;46.356;17.798;2022-12-08T03:37:25;37.05;;;33.15;;
44212;SDS011;29882;46.356;17.798;2022-12-08T03:39:53;36.75;;;32.92;;
44212;SDS011;29882;46.356;17.798;2022-12-08T03:42:21;37.88;;;33.95;;
44212;SDS011;29882;46.356;17.798;2022-12-08T03:44:48;42.67;;;38.05;;
44212;SDS011;29882;46.356;17.798;2022-12-08T03:47:15;41.03;;;36.58;;
44212;SDS011;29882;46.356;17.798;2022-12-08T03:49:42;42.78;;;38.25;;
44212;SDS011;29882;46.356;17.798;2022-12-08T03:52:09;44.55;;;39.53;;
44212;SDS011;29882;46.356;17.798;2022-12-08T03:54:36;46.30;;;39.42;;
44212;SDS011;29882;46.356;17.798;2022-12-08T03:57:03;48.13;;;42.00;;
44212;SDS011;29882;46.356;17.798;2022-12-08T03:59:30;47.53;;;41.70;;
44212;SDS011;29882;46.356;17.798;2022-12-08T04:01:57;51.05;;;41.95;;
44212;SDS011;29882;46.356;17.798;2022-12-08T04:04:24;45.05;;;39.55;;
44212;SDS011;29882;46.356;17.798;2022-12-08T04:06:51;44.28;;;38.22;;
44212;SDS011;29882;46.356;17.798;2022-12-08T04:09:18;48.78;;;39.72;;
44212;SDS011;29882;46.356;17.798;2022-12-08T04:11:45;43.63;;;38.42;;
44212;SDS011;29882;46.356;17.798;2022-12-08T04:14:12;47.42;;;41.05;;
44212;SDS011;29882;46.356;17.798;2022-12-08T04:16:39;47.47;;;39.95;;
44212;SDS011;29882;46.356;17.798;2022-12-08T04:19:06;47.97;;;40.95;;
44212;SDS011;29882;46.356;17.798;2022-12-08T04:21:35;49.42;;;42.13;;
44212;SDS011;29882;46.356;17.798;2022-12-08T04:24:02;48.67;;;41.70;;
44212;SDS011;29882;46.356;17.798;2022-12-08T04:26:29;48.20;;;41.63;;
44212;SDS011;29882;46.356;17.798;2022-12-08T04:28:56;50.38;;;43.05;;
44212;SDS011;29882;46.356;17.798;2022-12-08T04:31:23;51.60;;;42.78;;
44212;SDS011;29882;46.356;17.798;2022-12-08T04:33:50;50.45;;;42.75;;
44212;SDS011;29882;46.356;17.798;2022-12-08T04:36:17;53.75;;;43.92;;
44212;SDS011;29882;46.356;17.798;2022-12-08T04:38:44;59.72;;;47.10;;
44212;SDS011;29882;46.356;17.798;2022-12-08T04:41:11;48.72;;;43.03;;
44212;SDS011;29882;46.356;17.798;2022-12-08T04:43:38;54.65;;;43.25;;
44212;SDS011;29882;46.356;17.798;2022-12-08T04:46:07;56.88;;;44.30;;
44212;SDS011;29882;46.356;17.798;2022-12-08T04:48:38;53.92;;;42.03;;
44212;SDS011;29882;46.356;17.798;2022-12-08T04:51:06;52.35;;;42.42;;
44212;SDS011;29882;46.356;17.798;2022-12-08T04:53:41;49.22;;;41.58;;
44212;SDS011;29882;46.356;17.798;2022-12-08T04:56:13;50.03;;;41.47;;
44212;SDS011;29882;46.356;17.798;2022-12-08T04:58:41;55.03;;;43.45;;
44212;SDS011;29882;46.356;17.798;2022-12-08T05:01:08;55.88;;;45.45;;
44212;SDS011;29882;46.356;17.798;2022-12-08T05:03:36;53.58;;;44.72;;
44212;SDS011;29882;46.356;17.798;2022-12-08T05:06:03;54.88;;;44.85;;
44212;SDS011;29882;46.356;17.798;2022-12-08T05:08:30;55.75;;;45.40;;
44212;SDS011;29882;46.356;17.798;2022-12-08T05:11:02;60.17;;;46.13;;
44212;SDS011;29882;46.356;17.798;2022-12-08T05:13:31;56.53;;;44.45;;
44212;SDS011;29882;46.356;17.798;2022-12-08T05:16:09;51.03;;;42.35;;
44212;SDS011;29882;46.356;17.798;2022-12-08T05:18:39;49.47;;;41.92;;
44212;SDS011;29882;46.356;17.798;2022-12-08T05:21:07;44.42;;;39.58;;
44212;SDS011;29882;46.356;17.798;2022-12-08T05:23:35;47.05;;;40.70;;
44212;SDS011;29882;46.356;17.798;2022-12-08T05:26:02;47.97;;;42.10;;
44212;SDS011;29882;46.356;17.798;2022-12-08T05:28:29;49.58;;;41.47;;
44212;SDS011;29882;46.356;17.798;2022-12-08T05:31:12;45.05;;;40.28;;
44212;SDS011;29882;46.356;17.798;2022-12-08T05:33:40;47.72;;;40.67;;
44212;SDS011;29882;46.356;17.798;2022-12-08T05:36:09;43.53;;;38.97;;
44212;SDS011;29882;46.356;17.798;2022-12-08T05:38:38;47.38;;;40.88;;
44212;SDS011;29882;46.356;17.798;2022-12-08T05:41:06;44.58;;;39.85;;
44212;SDS011;29882;46.356;17.798;2022-12-08T05:43:34;45.90;;;41.03;;
44212;SDS011;29882;46.356;17.798;2022-12-08T05:46:01;45.75;;;40.83;;
44212;SDS011;29882;46.356;17.798;2022-12-08T05:48:29;45.17;;;40.42;;
44212;SDS011;29882;46.356;17.798;2022-12-08T05:50:56;45.28;;;40.47;;
44212;SDS011;29882;46.356;17.798;2022-12-08T05:53:23;50.03;;;43.35;;
44212;SDS011;29882;46.356;17.798;2022-12-08T05:55:50;64.90;;;57.75;;
44212;SDS011;29882;46.356;17.798;2022-12-08T05:58:19;52.75;;;44.70;;
44212;SDS011;29882;46.356;17.798;2022-12-08T06:00:48;54.80;;;48.80;;
44212;SDS011;29882;46.356;17.798;2022-12-08T06:03:16;50.90;;;44.55;;
44212;SDS011;29882;46.356;17.798;2022-12-08T06:05:45;47.80;;;42.78;;
44212;SDS011;29882;46.356;17.798;2022-12-08T06:08:13;48.42;;;41.95;;
44212;SDS011;29882;46.356;17.798;2022-12-08T06:10:41;52.88;;;44.75;;
44212;SDS011;29882;46.356;17.798;2022-12-08T06:13:09;47.72;;;42.83;;
44212;SDS011;29882;46.356;17.798;2022-12-08T06:15:37;50.33;;;42.53;;
44212;SDS011;29882;46.356;17.798;2022-12-08T06:18:04;46.45;;;41.47;;
44212;SDS011;29882;46.356;17.798;2022-12-08T06:20:32;44.72;;;39.90;;
44212;SDS011;29882;46.356;17.798;2022-12-08T06:23:00;51.28;;;43.55;;
44212;SDS011;29882;46.356;17.798;2022-12-08T06:25:27;51.75;;;44.78;;
44212;SDS011;29882;46.356;17.798;2022-12-08T06:27:54;64.78;;;50.65;;
44212;SDS011;29882;46.356;17.798;2022-12-08T06:30:21;62.95;;;51.63;;
44212;SDS011;29882;46.356;17.798;2022-12-08T06:32:48;57.60;;;49.60;;
44212;SDS011;29882;46.356;17.798;2022-12-08T06:35:15;59.92;;;50.17;;
44212;SDS011;29882;46.356;17.798;2022-12-08T06:37:42;54.58;;;46.15;;
44212;SDS011;29882;46.356;17.798;2022-12-08T06:40:10;50.90;;;43.45;;
44212;SDS011;29882;46.356;17.798;2022-12-08T06:42:37;48.17;;;42.95;;
44212;SDS011;29882;46.356;17.798;2022-12-08T06:45:11;51.90;;;42.97;;
44212;SDS011;29882;46.356;17.798;2022-12-08T06:47:40;53.65;;;42.70;;
44212;SDS011;29882;46.356;17.798;2022-12-08T06:50:08;46.63;;;39.80;;
44212;SDS011;29882;46.356;17.798;2022-12-08T06:52:36;45.92;;;39.05;;
44212;SDS011;29882;46.356;17.798;2022-12-08T06:55:18;45.22;;;39.10;;
44212;SDS011;29882;46.356;17.798;2022-12-08T06:58:05;48.75;;;43.00;;
44212;SDS011;29882;46.356;17.798;2022-12-08T07:00:32;55.90;;;44.88;;
44212;SDS011;29882;46.356;17.798;2022-12-08T07:02:59;52.20;;;44.40;;
44212;SDS011;29882;46.356;17.798;2022-12-08T07:05:26;57.95;;;45.92;;
44212;SDS011;29882;46.356;17.798;2022-12-08T07:07:53;60.03;;;47.33;;
44212;SDS011;29882;46.356;17.798;2022-12-08T07:10:21;63.05;;;48.28;;
44212;SDS011;29882;46.356;17.798;2022-12-08T07:12:48;58.13;;;47.75;;
44212;SDS011;29882;46.356;17.798;2022-12-08T07:15:15;55.72;;;46.30;;
44212;SDS011;29882;46.356;17.798;2022-12-08T07:17:42;59.58;;;48.60;;
44212;SDS011;29882;46.356;17.798;2022-12-08T07:20:09;53.47;;;44.85;;
44212;SDS011;29882;46.356;17.798;2022-12-08T07:22:37;59.45;;;47.70;;
44212;SDS011;29882;46.356;17.798;2022-12-08T07:25:04;51.00;;;43.00;;
44212;SDS011;29882;46.356;17.798;2022-12-08T07:27:31;50.42;;;42.35;;
44212;SDS011;29882;46.356;17.798;2022-12-08T07:29:58;48.22;;;42.00;;
44212;SDS011;29882;46.356;17.798;2022-12-08T07:32:25;49.88;;;43.13;;
44212;SDS011;29882;46.356;17.798;2022-12-08T07:34:52;45.92;;;40.85;;
44212;SDS011;29882;46.356;17.798;2022-12-08T07:37:19;45.08;;;39.97;;
44212;SDS011;29882;46.356;17.798;2022-12-08T07:39:46;45.72;;;39.17;;
44212;SDS011;29882;46.356;17.798;2022-12-08T07:42:13;53.13;;;42.42;;
44212;SDS011;29882;46.356;17.798;2022-12-08T07:44:44;54.28;;;43.42;;
44212;SDS011;29882;46.356;17.798;2022-12-08T07:47:12;61.38;;;48.20;;
44212;SDS011;29882;46.356;17.798;2022-12-08T07:49:39;63.58;;;46.63;;
44212;SDS011;29882;46.356;17.798;2022-12-08T07:52:06;60.92;;;46.72;;
44212;SDS011;29882;46.356;17.798;2022-12-08T07:54:33;64.88;;;49.15;;
44212;SDS011;29882;46.356;17.798;2022-12-08T07:57:00;64.07;;;45.75;;
44212;SDS011;29882;46.356;17.798;2022-12-08T07:59:29;57.80;;;43.35;;
44212;SDS011;29882;46.356;17.798;2022-12-08T08:01:56;62.55;;;43.28;;
44212;SDS011;29882;46.356;17.798;2022-12-08T08:04:43;58.25;;;41.13;;
44212;SDS011;29882;46.356;17.798;2022-12-08T08:07:10;60.75;;;43.13;;
44212;SDS011;29882;46.356;17.798;2022-12-08T08:09:37;58.10;;;43.25;;
44212;SDS011;29882;46.356;17.798;2022-12-08T08:12:05;51.60;;;38.72;;
44212;SDS011;29882;46.356;17.798;2022-12-08T08:14:52;47.47;;;34.53;;
44212;SDS011;29882;46.356;17.798;2022-12-08T08:17:19;43.83;;;33.85;;
44212;SDS011;29882;46.356;17.798;2022-12-08T08:19:46;43.55;;;33.97;;
44212;SDS011;29882;46.356;17.798;2022-12-08T08:22:13;40.42;;;31.85;;
44212;SDS011;29882;46.356;17.798;2022-12-08T08:24:40;40.28;;;31.20;;
44212;SDS011;29882;46.356;17.798;2022-12-08T08:27:10;38.05;;;30.85;;
44212;SDS011;29882;46.356;17.798;2022-12-08T08:29:38;38.20;;;31.33;;
44212;SDS011;29882;46.356;17.798;2022-12-08T08:32:05;37.35;;;30.90;;
44212;SDS011;29882;46.356;17.798;2022-12-08T08:34:32;39.55;;;31.25;;
44212;SDS011;29882;46.356;17.798;2022-12-08T08:36:59;43.25;;;32.22;;
44212;SDS011;29882;46.356;17.798;2022-12-08T08:39:26;39.85;;;31.35;;
44212;SDS011;29882;46.356;17.798;2022-12-08T08:41:53;38.65;;;31.50;;
44212;SDS011;29882;46.356;17.798;2022-12-08T08:44:20;43.47;;;32.17;;
44212;SDS011;29882;46.356;17.798;2022-12-08T08:46:47;45.30;;;30.60;;
44212;SDS011;29882;46.356;17.798;2022-12-08T08:49:14;38.03;;;29.80;;
44212;SDS011;29882;46.356;17.798;2022-12-08T08:51:41;41.80;;;30.25;;
44212;SDS011;29882;46.356;17.798;2022-12-08T08:54:09;37.88;;;28.23;;
44212;SDS011;29882;46.356;17.798;2022-12-08T08:56:36;38.95;;;29.27;;
44212;SDS011;29882;46.356;17.798;2022-12-08T08:59:04;35.35;;;28.23;;
44212;SDS011;29882;46.356;17.798;2022-12-08T09:01:31;36.88;;;27.35;;
44212;SDS011;29882;46.356;17.798;2022-12-08T09:03:58;34.47;;;24.38;;
44212;SDS011;29882;46.356;17.798;2022-12-08T09:06:25;31.65;;;24.92;;
44212;SDS011;29882;46.356;17.798;2022-12-08T09:08:54;29.27;;;23.27;;
44212;SDS011;29882;46.356;17.798;2022-12-08T09:11:21;27.95;;;22.48;;
44212;SDS011;29882;46.356;17.798;2022-12-08T09:13:51;33.65;;;22.90;;
44212;SDS011;29882;46.356;17.798;2022-12-08T09:16:20;28.55;;;21.08;;
44212;SDS011;29882;46.356;17.798;2022-12-08T09:18:48;25.88;;;19.98;;
44212;SDS011;29882;46.356;17.798;2022-12-08T09:21:17;31.50;;;20.33;;
44212;SDS011;29882;46.356;17.798;2022-12-08T09:23:52;23.75;;;20.40;;
44212;SDS011;29882;46.356;17.798;2022-12-08T09:26:24;23.05;;;18.02;;
44212;SDS011;29882;46.356;17.798;2022-12-08T09:28:52;20.42;;;17.70;;
44212;SDS011;29882;46.356;17.798;2022-12-08T09:31:21;18.83;;;15.60;;
44212;SDS011;29882;46.356;17.798;2022-12-08T09:33:49;18.55;;;16.00;;
44212;SDS011;29882;46.356;17.798;2022-12-08T09:36:19;20.88;;;15.60;;
44212;SDS011;29882;46.356;17.798;2022-12-08T09:38:46;17.52;;;14.43;;
44212;SDS011;29882;46.356;17.798;2022-12-08T09:47:02;19.98;;;13.10;;
44212;SDS011;29882;46.356;17.798;2022-12-08T09:49:41;17.70;;;13.80;;
44212;SDS011;29882;46.356;17.798;2022-12-08T09:52:16;17.38;;;14.07;;
44212;SDS011;29882;46.356;17.798;2022-12-08T09:54:50;17.35;;;13.80;;
44212;SDS011;29882;46.356;17.798;2022-12-08T09:57:19;19.67;;;15.23;;
44212;SDS011;29882;46.356;17.798;2022-12-08T10:00:00;20.67;;;14.30;;
44212;SDS011;29882;46.356;17.798;2022-12-08T10:02:31;16.02;;;12.85;;
44212;SDS011;29882;46.356;17.798;2022-12-08T10:04:59;16.10;;;13.13;;
44212;SDS011;29882;46.356;17.798;2022-12-08T10:07:29;18.30;;;13.45;;
44212;SDS011;29882;46.356;17.798;2022-12-08T10:10:12;18.27;;;12.43;;
44212;SDS011;29882;46.356;17.798;2022-12-08T10:16:02;15.25;;;11.98;;
44212;SDS011;29882;46.356;17.798;2022-12-08T10:18:38;14.95;;;11.77;;
44212;SDS011;29882;46.356;17.798;2022-12-08T10:21:16;13.23;;;10.77;;
44212;SDS011;29882;46.356;17.798;2022-12-08T10:23:49;15.10;;;11.80;;
44212;SDS011;29882;46.356;17.798;2022-12-08T10:26:21;14.57;;;11.38;;
44212;SDS011;29882;46.356;17.798;2022-12-08T10:28:48;16.60;;;10.70;;
44212;SDS011;29882;46.356;17.798;2022-12-08T10:31:16;11.68;;;10.00;;
44212;SDS011;29882;46.356;17.798;2022-12-08T10:33:46;14.82;;;10.48;;
44212;SDS011;29882;46.356;17.798;2022-12-08T10:36:16;12.48;;;10.30;;
44212;SDS011;29882;46.356;17.798;2022-12-08T10:38:43;15.75;;;9.73;;
44212;SDS011;29882;46.356;17.798;2022-12-08T10:44:21;14.23;;;10.13;;
44212;SDS011;29882;46.356;17.798;2022-12-08T10:46:28;13.50;;;9.65;;
44212;SDS011;29882;46.356;17.798;2022-12-08T10:53:58;17.10;;;11.02;;
44212;SDS011;29882;46.356;17.798;2022-12-08T10:56:27;14.48;;;10.70;;
44212;SDS011;29882;46.356;17.798;2022-12-08T10:59:13;19.30;;;11.85;;
44212;SDS011;29882;46.356;17.798;2022-12-08T11:01:49;16.02;;;11.65;;
44212;SDS011;29882;46.356;17.798;2022-12-08T11:04:20;17.15;;;12.85;;
44212;SDS011;29882;46.356;17.798;2022-12-08T11:06:49;18.13;;;13.32;;
44212;SDS011;29882;46.356;17.798;2022-12-08T11:11:52;18.45;;;13.50;;
44212;SDS011;29882;46.356;17.798;2022-12-08T11:14:23;19.13;;;13.40;;
44212;SDS011;29882;46.356;17.798;2022-12-08T11:17:00;16.58;;;11.63;;
44212;SDS011;29882;46.356;17.798;2022-12-08T11:19:31;13.95;;;10.35;;
44212;SDS011;29882;46.356;17.798;2022-12-08T11:27:34;16.05;;;10.32;;
44212;SDS011;29882;46.356;17.798;2022-12-08T11:30:05;13.77;;;10.77;;
44212;SDS011;29882;46.356;17.798;2022-12-08T11:32:43;14.57;;;10.95;;
44212;SDS011;29882;46.356;17.798;2022-12-08T11:35:25;15.85;;;11.85;;
44212;SDS011;29882;46.356;17.798;2022-12-08T11:37:56;15.77;;;10.63;;
44212;SDS011;29882;46.356;17.798;2022-12-08T11:40:46;12.80;;;10.55;;
44212;SDS011;29882;46.356;17.798;2022-12-08T11:46:02;12.55;;;10.77;;
44212;SDS011;29882;46.356;17.798;2022-12-08T11:48:36;13.07;;;10.15;;
44212;SDS011;29882;46.356;17.798;2022-12-08T11:57:28;13.20;;;9.95;;
44212;SDS011;29882;46.356;17.798;2022-12-08T11:59:56;13.73;;;11.20;;
44212;SDS011;29882;46.356;17.798;2022-12-08T12:02:25;15.00;;;11.35;;
44212;SDS011;29882;46.356;17.798;2022-12-08T12:05:02;14.55;;;11.65;;
44212;SDS011;29882;46.356;17.798;2022-12-08T12:10:30;19.58;;;14.82;;
44212;SDS011;29882;46.356;17.798;2022-12-08T12:16:10;15.68;;;12.80;;
44212;SDS011;29882;46.356;17.798;2022-12-08T12:18:50;15.75;;;12.57;;
44212;SDS011;29882;46.356;17.798;2022-12-08T12:21:24;16.05;;;12.73;;
44212;SDS011;29882;46.356;17.798;2022-12-08T12:23:59;17.05;;;13.25;;
44212;SDS011;29882;46.356;17.798;2022-12-08T12:26:27;17.08;;;13.13;;
44212;SDS011;29882;46.356;17.798;2022-12-08T12:32:04;16.10;;;13.02;;
44212;SDS011;29882;46.356;17.798;2022-12-08T12:34:35;17.88;;;13.38;;
44212;SDS011;29882;46.356;17.798;2022-12-08T12:37:11;16.45;;;12.48;;
44212;SDS011;29882;46.356;17.798;2022-12-08T12:52:59;17.27;;;14.02;;
44212;SDS011;29882;46.356;17.798;2022-12-08T13:03:45;17.67;;;14.63;;
44212;SDS011;29882;46.356;17.798;2022-12-08T13:06:22;24.40;;;16.13;;
44212;SDS011;29882;46.356;17.798;2022-12-08T13:08:59;21.52;;;16.90;;
44212;SDS011;29882;46.356;17.798;2022-12-08T13:11:26;22.40;;;17.42;;
44212;SDS011;29882;46.356;17.798;2022-12-08T13:14:00;24.10;;;18.05;;
44212;SDS011;29882;46.356;17.798;2022-12-08T13:16:33;26.98;;;19.10;;
44212;SDS011;29882;46.356;17.798;2022-12-08T13:19:04;24.27;;;19.00;;
44212;SDS011;29882;46.356;17.798;2022-12-08T13:21:39;27.17;;;19.95;;
44212;SDS011;29882;46.356;17.798;2022-12-08T13:26:43;25.33;;;20.45;;
44212;SDS011;29882;46.356;17.798;2022-12-08T13:29:38;28.75;;;20.60;;
44212;SDS011;29882;46.356;17.798;2022-12-08T13:34:37;25.25;;;20.40;;
44212;SDS011;29882;46.356;17.798;2022-12-08T13:37:17;26.85;;;19.35;;
44212;SDS011;29882;46.356;17.798;2022-12-08T13:40:14;24.52;;;19.33;;
44212;SDS011;29882;46.356;17.798;2022-12-08T13:43:05;27.75;;;20.23;;
44212;SDS011;29882;46.356;17.798;2022-12-08T13:45:40;22.85;;;19.05;;
44212;SDS011;29882;46.356;17.798;2022-12-08T13:48:30;28.58;;;20.65;;
44212;SDS011;29882;46.356;17.798;2022-12-08T13:51:42;24.23;;;19.90;;
44212;SDS011;29882;46.356;17.798;2022-12-08T13:54:35;24.52;;;19.90;;
44212;SDS011;29882;46.356;17.798;2022-12-08T13:57:30;24.98;;;19.88;;
44212;SDS011;29882;46.356;17.798;2022-12-08T14:00:00;27.27;;;21.38;;
44212;SDS011;29882;46.356;17.798;2022-12-08T14:02:40;26.35;;;20.65;;
44212;SDS011;29882;46.356;17.798;2022-12-08T14:05:13;28.17;;;21.63;;
44212;SDS011;29882;46.356;17.798;2022-12-08T14:08:07;27.42;;;20.58;;
44212;SDS011;29882;46.356;17.798;2022-12-08T14:11:15;27.48;;;21.73;;
44212;SDS011;29882;46.356;17.798;2022-12-08T14:14:00;25.40;;;20.13;;
44212;SDS011;29882;46.356;17.798;2022-12-08T14:16:35;25.08;;;20.33;;
44212;SDS011;29882;46.356;17.798;2022-12-08T14:19:17;29.45;;;22.42;;
44212;SDS011;29882;46.356;17.798;2022-12-08T14:24:22;29.85;;;23.15;;
44212;SDS011;29882;46.356;17.798;2022-12-08T14:26:51;33.25;;;24.58;;
44212;SDS011;29882;46.356;17.798;2022-12-08T14:29:41;35.40;;;25.75;;
44212;SDS011;29882;46.356;17.798;2022-12-08T14:32:35;34.55;;;26.52;;
44212;SDS011;29882;46.356;17.798;2022-12-08T14:37:43;36.08;;;27.77;;
44212;SDS011;29882;46.356;17.798;2022-12-08T14:42:50;39.58;;;28.08;;
44212;SDS011;29882;46.356;17.798;2022-12-08T14:53:34;41.20;;;28.52;;
44212;SDS011;29882;46.356;17.798;2022-12-08T14:56:06;42.97;;;31.73;;
44212;SDS011;29882;46.356;17.798;2022-12-08T14:58:37;38.83;;;30.55;;
44212;SDS011;29882;46.356;17.798;2022-12-08T15:01:05;43.63;;;30.98;;
44212;SDS011;29882;46.356;17.798;2022-12-08T15:03:33;39.03;;;30.20;;
44212;SDS011;29882;46.356;17.798;2022-12-08T15:06:02;38.45;;;29.83;;
44212;SDS011;29882;46.356;17.798;2022-12-08T15:08:32;38.67;;;30.08;;
44212;SDS011;29882;46.356;17.798;2022-12-08T16:41:22;53.13;;;44.85;;
